Weather at Kenosha Regional Airport

Public forecast

Using degrees Fahrenheit for public forecast. Weather courtesy of forecast.io.

Current aviation weather report (METAR) for Kenosha Regional Airport

Retrieved 2021/01/23 05:53 UTC (46 minutes ago):

KENW 230553Z AUTO 27005KT 10SM CLR M14/M19 A3028 RMK AO2 SLP272 T11391189 11106 21139 410221139 51009

Aviation forecast (TAF) for Kenosha Regional Airport

Forecast is more than 6 hours old.

Retrieved 2021-01-23 00:22 UTC (6 hours ago):

TAF KENW 222320Z 2300/2324 30007KT P6SM SKC FM231100 28003KT P6SM SKC FM232100 20005KT P6SM BKN120